Time;durP1;ratioP1;P1;durP2;ratioP2;P2;SDS_P1;SDS_P2;PMS_P1;PMS_P2;Temp;Humidity;BMP_temperature;BMP_pressure;BME280_temperature;BME280_humidity;BME280_pressure;Samples;Min_cycle;Max_cycle;Signal;HPM_P1;HPM_P2
2022/08/08 00:00:37;;;;;;;6.45;3.72;;;15.40;99.90;;;;;;5092754;28;20030;-67
2022/08/08 00:03:28;;;;;;;9.10;3.63;;;15.30;99.90;;;;;;5092608;28;20035;-67
2022/08/08 00:06:04;;;;;;;9.20;3.63;;;15.30;99.90;;;;;;5092419;28;20527;-67
2022/08/08 00:08:44;;;;;;;5.40;2.90;;;15.30;99.90;;;;;;5092301;28;20610;-70
2022/08/08 00:11:45;;;;;;;6.82;3.30;;;15.30;99.90;;;;;;5092351;28;20020;-67
2022/08/08 00:14:14;;;;;;;6.72;3.10;;;15.20;99.90;;;;;;5092571;28;20374;-68
2022/08/08 00:16:50;;;;;;;9.23;3.63;;;15.20;99.90;;;;;;5092557;28;20020;-67
2022/08/08 00:19:26;;;;;;;6.20;3.55;;;15.20;99.90;;;;;;5092551;28;20103;-69
2022/08/08 00:22:01;;;;;;;8.20;3.28;;;15.20;99.90;;;;;;5092408;28;20028;-69
2022/08/08 00:25:00;;;;;;;7.05;3.55;;;15.10;99.90;;;;;;5092431;28;20026;-67
2022/08/08 00:27:27;;;;;;;8.18;3.25;;;15.10;99.90;;;;;;5068980;28;20089;-68
2022/08/08 00:30:01;;;;;;;7.53;3.30;;;15.10;99.90;;;;;;5092134;28;20107;-67
2022/08/08 00:33:15;;;;;;;8.20;3.63;;;15.10;99.90;;;;;;5093414;28;20020;-71
2022/08/08 00:36:05;;;;;;;9.82;3.65;;;15.10;99.90;;;;;;5036406;28;20025;-68
2022/08/08 00:38:47;;;;;;;9.82;3.90;;;15.10;99.90;;;;;;5053429;28;20052;-67
2022/08/08 00:41:42;;;;;;;9.23;3.88;;;15.00;99.90;;;;;;5087115;28;20415;-67
2022/08/08 00:44:26;;;;;;;8.30;3.90;;;15.00;99.90;;;;;;5096171;28;20020;-68
2022/08/08 00:47:40;;;;;;;9.10;3.95;;;15.00;99.90;;;;;;5096044;28;20024;-67
2022/08/08 00:50:41;;;;;;;8.45;3.72;;;14.90;99.90;;;;;;5095518;28;20028;-69
2022/08/08 00:53:28;;;;;;;8.45;3.85;;;15.00;99.90;;;;;;5094353;28;20016;-70
2022/08/08 00:56:15;;;;;;;8.10;3.90;;;15.00;99.90;;;;;;5095664;28;20039;-67
2022/08/08 00:59:25;;;;;;;7.97;3.63;;;15.00;99.90;;;;;;5095749;28;20079;-67
2022/08/08 01:02:30;;;;;;;7.13;3.80;;;15.00;99.90;;;;;;5095002;28;20064;-67
2022/08/08 01:05:10;;;;;;;7.75;3.55;;;15.00;99.90;;;;;;5095613;28;20032;-67
2022/08/08 01:07:52;;;;;;;6.97;3.53;;;15.00;99.90;;;;;;5095493;28;20024;-70
2022/08/08 01:10:39;;;;;;;10.93;3.58;;;15.00;99.90;;;;;;5095590;28;20077;-67
2022/08/08 01:13:13;;;;;;;10.10;3.67;;;15.10;99.90;;;;;;5095275;28;20099;-68
2022/08/08 01:15:57;;;;;;;6.55;3.55;;;15.00;99.90;;;;;;5095236;28;20051;-70
2022/08/08 01:18:29;;;;;;;7.22;3.45;;;15.00;99.90;;;;;;5095256;28;20102;-66
2022/08/08 01:21:25;;;;;;;8.35;3.67;;;15.00;99.90;;;;;;5094964;28;20066;-69
2022/08/08 01:24:27;;;;;;;7.05;4.13;;;14.90;99.90;;;;;;5095211;28;20020;-67
2022/08/08 01:27:12;;;;;;;8.35;3.63;;;14.90;99.90;;;;;;5094913;28;20483;-67
2022/08/08 01:30:11;;;;;;;7.15;3.80;;;14.90;99.90;;;;;;5094723;28;20016;-67
2022/08/08 01:33:14;;;;;;;5.85;3.58;;;14.90;99.90;;;;;;5094967;28;20450;-66
2022/08/08 01:36:17;;;;;;;10.77;3.55;;;14.80;99.90;;;;;;5094683;28;20081;-66
2022/08/08 01:39:04;;;;;;;8.63;3.60;;;14.80;99.90;;;;;;5094848;28;20018;-67
2022/08/08 01:41:30;;;;;;;6.55;3.40;;;14.80;99.90;;;;;;5094379;28;20123;-68
2022/08/08 01:44:25;;;;;;;8.55;3.80;;;14.80;99.90;;;;;;5093770;28;20024;-66
2022/08/08 01:47:18;;;;;;;9.88;4.45;;;14.70;99.90;;;;;;5075965;28;20043;-68
2022/08/08 01:49:59;;;;;;;12.20;4.22;;;14.70;99.90;;;;;;5074178;28;20366;-68
2022/08/08 01:52:56;;;;;;;7.00;3.88;;;14.70;99.90;;;;;;5074197;28;20373;-68
2022/08/08 01:55:45;;;;;;;8.45;3.70;;;14.60;99.90;;;;;;5073837;28;20434;-67
2022/08/08 01:58:27;;;;;;;11.40;3.90;;;14.60;99.90;;;;;;5073963;28;20041;-71
2022/08/08 02:01:30;;;;;;;9.95;4.15;;;14.60;99.90;;;;;;5073754;28;20031;-67
2022/08/08 02:04:13;;;;;;;8.60;4.05;;;14.70;99.90;;;;;;5072799;28;20027;-68
2022/08/08 02:06:51;;;;;;;7.68;3.83;;;14.70;99.90;;;;;;5073682;28;20378;-69
2022/08/08 02:09:31;;;;;;;8.15;3.47;;;14.70;99.90;;;;;;5073809;28;20021;-67
2022/08/08 02:12:03;;;;;;;8.82;3.58;;;14.70;99.90;;;;;;5073903;28;20021;-69
2022/08/08 02:14:41;;;;;;;9.93;3.45;;;14.70;99.90;;;;;;5073889;28;20027;-69
2022/08/08 02:17:32;;;;;;;5.47;3.70;;;14.70;99.90;;;;;;5089755;28;20021;-67
2022/08/08 02:20:41;;;;;;;7.85;3.65;;;14.70;99.90;;;;;;5093620;28;20016;-69
2022/08/08 02:23:19;;;;;;;8.65;3.45;;;14.60;99.90;;;;;;5073342;28;20362;-68
2022/08/08 02:26:07;;;;;;;7.07;3.47;;;14.60;99.90;;;;;;5093481;28;20077;-70
2022/08/08 02:28:59;;;;;;;6.25;4.00;;;14.60;99.90;;;;;;5093671;28;20442;-66
2022/08/08 02:31:48;;;;;;;9.20;4.50;;;14.60;99.90;;;;;;5090141;28;20012;-67
2022/08/08 02:34:52;;;;;;;8.88;3.83;;;14.60;99.90;;;;;;5062819;28;20109;-67
2022/08/08 02:37:50;;;;;;;6.60;3.47;;;14.50;99.90;;;;;;5089900;28;20026;-68
2022/08/08 02:40:41;;;;;;;9.48;3.35;;;14.50;99.90;;;;;;5092819;28;20020;-69
2022/08/08 02:43:21;;;;;;;8.32;3.60;;;14.50;99.90;;;;;;5091922;28;20047;-67
2022/08/08 02:46:22;;;;;;;8.68;3.65;;;14.50;99.90;;;;;;5089737;28;20027;-67
2022/08/08 02:49:09;;;;;;;6.88;3.80;;;14.40;99.90;;;;;;5055306;28;20024;-68
2022/08/08 02:51:41;;;;;;;8.10;3.50;;;14.40;99.90;;;;;;5090641;28;20016;-67
2022/08/08 02:54:31;;;;;;;9.85;4.10;;;14.40;99.90;;;;;;5092823;28;20024;-67
2022/08/08 02:57:33;;;;;;;6.88;3.83;;;14.40;99.90;;;;;;5092893;28;20028;-68
2022/08/08 03:00:35;;;;;;;5.72;3.25;;;14.40;99.90;;;;;;5093431;28;20031;-67
2022/08/08 03:03:18;;;;;;;;;;;14.40;99.90;;;;;;5093746;28;20477;-66
2022/08/08 03:05:58;;;;;;;8.77;3.63;;;14.40;99.90;;;;;;5093208;28;20289;-70
2022/08/08 03:09:07;;;;;;;8.27;3.53;;;14.30;99.90;;;;;;5093554;28;20361;-67
2022/08/08 03:12:10;;;;;;;11.20;4.15;;;14.30;99.90;;;;;;5093398;28;20112;-72
2022/08/08 03:14:54;;;;;;;8.15;4.03;;;14.30;99.90;;;;;;5092238;28;20365;-71
2022/08/08 03:17:24;;;;;;;9.48;4.63;;;14.30;99.90;;;;;;5093009;28;20054;-68
2022/08/08 03:20:10;;;;;;;7.65;4.13;;;14.40;99.90;;;;;;5075051;28;20024;-69
2022/08/08 03:22:47;;;;;;;11.48;4.78;;;14.50;99.90;;;;;;5093502;28;20055;-72
2022/08/08 03:25:16;;;;;;;10.40;4.47;;;14.50;99.90;;;;;;5092919;28;20051;-73
2022/08/08 03:27:59;;;;;;;7.13;3.60;;;14.50;99.90;;;;;;5093207;28;20028;-69
2022/08/08 03:30:25;;;;;;;7.15;3.50;;;14.50;99.90;;;;;;5093251;28;20105;-68
2022/08/08 03:35:38;;;;;;;12.60;4.10;;;14.50;99.90;;;;;;5093493;28;20085;-68
2022/08/08 03:38:04;;;;;;;10.45;4.45;;;14.40;99.90;;;;;;5093120;28;20491;-67
2022/08/08 03:40:30;;;;;;;8.38;4.30;;;14.40;99.90;;;;;;5092743;28;20016;-67
2022/08/08 03:42:57;;;;;;;8.73;4.18;;;14.40;99.90;;;;;;5093001;28;20859;-68
2022/08/08 03:45:24;;;;;;;10.80;4.85;;;14.40;99.90;;;;;;5092952;28;20119;-67
2022/08/08 03:47:58;;;;;;;11.57;4.55;;;14.40;99.90;;;;;;5092876;28;20065;-67
2022/08/08 03:50:25;;;;;;;9.00;4.40;;;14.40;99.90;;;;;;5092915;28;20378;-67
2022/08/08 03:52:51;;;;;;;8.73;4.03;;;14.50;99.90;;;;;;5092827;28;20460;-66
2022/08/08 03:55:19;;;;;;;10.25;4.60;;;14.50;99.90;;;;;;5093046;28;20045;-67
2022/08/08 03:57:50;;;;;;;9.77;4.40;;;14.50;99.90;;;;;;5092541;28;20040;-67
2022/08/08 04:00:18;;;;;;;8.40;3.93;;;14.50;99.90;;;;;;5092715;28;20024;-67
2022/08/08 04:02:53;;;;;;;15.18;6.03;;;14.50;99.90;;;;;;5092554;28;20824;-67
2022/08/08 04:05:19;;;;;;;7.93;4.30;;;14.50;99.90;;;;;;5092532;28;20024;-71
2022/08/08 04:07:44;;;;;;;9.48;4.43;;;14.50;99.90;;;;;;5094307;28;20019;-69
2022/08/08 04:10:10;;;;;;;10.75;4.35;;;14.50;99.90;;;;;;5097067;28;20035;-72
2022/08/08 04:12:36;;;;;;;7.07;3.75;;;14.50;99.90;;;;;;5096560;28;20016;-69
2022/08/08 04:15:02;;;;;;;9.38;4.38;;;14.50;99.90;;;;;;5096440;28;20023;-67
2022/08/08 04:17:28;;;;;;;8.00;4.18;;;14.50;99.90;;;;;;5094729;28;20097;-67
2022/08/08 04:19:55;;;;;;;10.25;4.15;;;14.50;99.90;;;;;;5096136;28;20097;-70
2022/08/08 04:22:21;;;;;;;6.10;4.00;;;14.50;99.90;;;;;;5096478;28;20028;-67
2022/08/08 04:24:46;;;;;;;8.13;4.13;;;14.50;99.90;;;;;;5096350;28;20445;-68
2022/08/08 04:27:12;;;;;;;7.53;3.83;;;14.50;99.90;;;;;;5094108;28;20034;-67
2022/08/08 04:29:38;;;;;;;7.47;4.00;;;14.50;99.90;;;;;;5095963;28;20107;-69
2022/08/08 04:32:05;;;;;;;10.30;4.30;;;14.60;99.90;;;;;;5095769;28;20446;-69
2022/08/08 04:34:31;;;;;;;8.57;4.38;;;14.60;99.90;;;;;;5095729;28;20024;-73
2022/08/08 04:36:56;;;;;;;15.70;7.70;;;14.70;99.90;;;;;;5095770;28;20030;-71
2022/08/08 04:39:22;;;;;;;7.47;4.43;;;14.70;99.90;;;;;;5096136;28;20060;-70
2022/08/08 04:41:47;;;;;;;8.52;4.22;;;14.70;99.90;;;;;;5095799;28;20385;-71
2022/08/08 04:44:13;;;;;;;9.27;4.43;;;14.80;99.90;;;;;;5096039;28;20233;-67
2022/08/08 04:46:39;;;;;;;9.38;4.82;;;14.80;99.90;;;;;;5095973;28;20107;-67
2022/08/08 04:49:04;;;;;;;8.63;4.35;;;14.90;99.90;;;;;;5095979;28;20024;-66
2022/08/08 04:51:30;;;;;;;10.10;4.28;;;14.90;99.90;;;;;;5095838;28;20020;-67
2022/08/08 04:53:55;;;;;;;10.27;4.72;;;15.00;99.90;;;;;;5095520;28;20384;-68
2022/08/08 04:56:21;;;;;;;10.18;4.70;;;15.10;99.90;;;;;;5095725;28;20335;-66
2022/08/08 04:58:46;;;;;;;11.68;4.85;;;15.30;99.90;;;;;;5094012;28;20055;-67
2022/08/08 05:01:12;;;;;;;11.40;4.85;;;15.40;99.90;;;;;;5095220;28;20469;-72
2022/08/08 05:03:37;;;;;;;10.15;4.43;;;15.50;99.90;;;;;;5095891;28;20322;-70
2022/08/08 05:06:03;;;;;;;16.13;5.07;;;15.60;99.90;;;;;;5095508;28;20452;-66
2022/08/08 05:08:29;;;;;;;9.90;5.15;;;15.70;99.90;;;;;;5095759;28;20016;-67
2022/08/08 05:10:54;;;;;;;10.60;4.82;;;15.80;99.90;;;;;;5095839;28;20408;-67
2022/08/08 05:13:20;;;;;;;11.57;5.05;;;16.00;99.90;;;;;;5095760;28;20095;-70
2022/08/08 05:15:46;;;;;;;16.40;7.45;;;16.10;99.90;;;;;;5095849;28;20515;-67
2022/08/08 05:18:11;;;;;;;10.55;4.88;;;16.20;99.90;;;;;;5094991;28;20027;-69
2022/08/08 05:20:38;;;;;;;9.02;4.57;;;16.40;99.90;;;;;;5095727;28;20031;-67
2022/08/08 05:23:03;;;;;;;10.73;5.18;;;16.50;99.90;;;;;;5095378;28;20040;-67
2022/08/08 05:25:30;;;;;;;8.70;4.40;;;16.60;99.90;;;;;;5095483;28;20024;-67
2022/08/08 05:27:55;;;;;;;15.00;4.93;;;16.70;99.90;;;;;;5095485;28;20107;-67
2022/08/08 05:30:21;;;;;;;12.57;4.82;;;16.80;99.90;;;;;;5095416;28;20107;-69
2022/08/08 05:32:46;;;;;;;9.75;5.25;;;17.00;99.90;;;;;;5095167;28;20027;-67
2022/08/08 05:35:13;;;;;;;11.10;5.35;;;17.10;99.90;;;;;;5095328;28;20509;-67
2022/08/08 05:37:46;;;;;;;15.13;7.05;;;17.20;99.90;;;;;;5095237;28;20020;-69
2022/08/08 05:40:12;;;;;;;11.93;5.03;;;17.30;99.90;;;;;;5095143;28;20020;-67
2022/08/08 05:42:48;;;;;;;14.35;4.60;;;17.40;99.90;;;;;;5095442;28;20039;-72
2022/08/08 05:45:13;;;;;;;11.80;5.20;;;17.50;99.90;;;;;;5095152;28;20081;-68
2022/08/08 05:47:40;;;;;;;8.90;4.75;;;17.70;99.90;;;;;;5095089;28;20091;-70
2022/08/08 05:50:06;;;;;;;9.77;3.92;;;17.80;99.90;;;;;;5094922;28;20016;-70
2022/08/08 05:52:36;;;;;;;9.68;4.63;;;17.90;99.90;;;;;;5094977;28;20379;-70
2022/08/08 05:55:09;;;;;;;11.38;4.40;;;17.90;99.90;;;;;;5094924;28;20460;-67
2022/08/08 05:57:36;;;;;;;9.32;4.07;;;18.00;99.90;;;;;;5094793;28;20052;-67
2022/08/08 06:00:07;;;;;;;8.75;4.20;;;18.00;99.90;;;;;;5094605;28;20016;-68
2022/08/08 06:05:20;;;;;;;8.18;4.63;;;18.10;99.90;;;;;;5095066;28;20066;-69
2022/08/08 06:07:48;;;;;;;8.73;4.60;;;18.20;99.90;;;;;;5095716;28;20066;-69
2022/08/08 06:10:14;;;;;;;11.70;4.32;;;18.40;99.90;;;;;;5095654;28;20446;-67
2022/08/08 06:12:44;;;;;;;7.32;3.88;;;18.50;99.90;;;;;;5094603;28;20024;-66
2022/08/08 06:15:11;;;;;;;13.48;4.53;;;18.70;99.90;;;;;;5095114;28;20020;-67
2022/08/08 06:17:38;;;;;;;7.50;3.13;;;18.90;99.90;;;;;;5094509;28;20037;-67
2022/08/08 06:20:10;;;;;;;7.20;3.17;;;19.20;99.90;;;;;;5094087;28;20381;-71
2022/08/08 06:22:36;;;;;;;9.73;3.55;;;19.50;99.90;;;;;;5094699;28;20111;-67
2022/08/08 06:25:03;;;;;;;8.38;3.33;;;19.90;99.90;;;;;;5093729;28;20024;-68
2022/08/08 06:27:37;;;;;;;7.55;2.60;;;20.30;99.90;;;;;;5094274;28;20039;-68
2022/08/08 06:30:11;;;;;;;12.52;2.65;;;20.80;99.90;;;;;;5093763;28;20016;-70
2022/08/08 06:32:43;;;;;;;6.70;2.20;;;21.40;99.90;;;;;;5092998;28;20077;-68
2022/08/08 06:35:11;;;;;;;6.93;2.65;;;22.10;99.90;;;;;;5094368;28;20031;-72
2022/08/08 06:37:42;;;;;;;7.97;2.63;;;22.90;99.90;;;;;;5094011;28;20020;-70
2022/08/08 06:40:10;;;;;;;8.32;2.50;;;23.70;99.90;;;;;;5094204;28;20095;-67
2022/08/08 06:42:37;;;;;;;6.70;1.80;;;24.50;99.10;;;;;;5093892;28;20476;-67
2022/08/08 06:45:06;;;;;;;4.80;1.95;;;25.10;97.70;;;;;;5093982;28;20023;-69
2022/08/08 06:47:33;;;;;;;5.32;1.80;;;25.70;96.60;;;;;;5093851;28;20020;-70
2022/08/08 06:49:59;;;;;;;5.28;1.90;;;26.10;95.20;;;;;;5093681;28;20027;-67
2022/08/08 06:52:26;;;;;;;6.78;2.20;;;26.10;94.90;;;;;;5093586;28;20020;-67
2022/08/08 06:54:54;;;;;;;5.75;2.20;;;26.50;94.40;;;;;;5093960;28;20039;-67
2022/08/08 06:57:23;;;;;;;5.72;2.00;;;27.30;94.00;;;;;;5093750;28;20048;-68
2022/08/08 06:59:50;;;;;;;5.57;1.85;;;27.90;92.70;;;;;;5093739;28;20105;-71
2022/08/08 07:02:24;;;;;;;5.32;1.83;;;28.50;91.40;;;;;;5093527;28;20081;-67
2022/08/08 07:05:04;;;;;;;5.10;1.95;;;29.00;90.90;;;;;;5091999;28;20026;-67
2022/08/08 07:07:51;;;;;;;4.53;1.60;;;29.60;90.30;;;;;;5085692;28;20103;-70
2022/08/08 07:10:20;;;;;;;4.70;2.05;;;30.20;88.60;;;;;;5084851;28;20106;-66
2022/08/08 07:12:52;;;;;;;3.70;1.50;;;30.50;86.30;;;;;;5092999;28;20073;-67
2022/08/08 07:15:26;;;;;;;6.15;1.42;;;30.40;84.20;;;;;;5093550;28;20016;-68
2022/08/08 07:17:54;;;;;;;3.15;1.13;;;30.10;84.40;;;;;;5093137;28;20023;-66
2022/08/08 07:20:25;;;;;;;3.40;1.17;;;29.60;84.60;;;;;;5093178;28;20023;-70
2022/08/08 07:23:17;;;;;;;7.15;1.55;;;29.40;83.70;;;;;;5093419;28;20061;-69
2022/08/08 07:25:45;;;;;;;4.47;1.52;;;28.70;85.50;;;;;;5093075;28;20012;-66
2022/08/08 07:28:15;;;;;;;6.30;1.42;;;28.30;87.00;;;;;;5093245;28;20024;-67
2022/08/08 07:30:42;;;;;;;6.40;1.30;;;27.50;88.20;;;;;;5093176;28;20020;-66
2022/08/08 07:33:10;;;;;;;9.60;1.95;;;27.20;89.10;;;;;;5093467;28;20058;-68
2022/08/08 07:35:37;;;;;;;4.93;1.50;;;26.80;89.90;;;;;;5093398;28;20023;-67
2022/08/08 07:38:03;;;;;;;5.72;1.42;;;26.50;90.50;;;;;;5091495;28;20016;-66
2022/08/08 07:40:31;;;;;;;1.85;1.27;;;26.50;90.50;;;;;;5091636;28;20024;-70
2022/08/08 07:42:59;;;;;;;6.95;1.95;;;26.40;90.40;;;;;;5095135;28;20032;-66
2022/08/08 07:45:25;;;;;;;3.35;1.40;;;26.20;90.90;;;;;;5097639;28;20103;-66
2022/08/08 07:47:53;;;;;;;5.32;1.58;;;26.00;91.40;;;;;;5096060;28;20111;-66
2022/08/08 07:50:19;;;;;;;9.60;1.70;;;25.90;91.70;;;;;;5097064;28;20016;-69
2022/08/08 07:52:53;;;;;;;4.38;1.70;;;25.90;91.60;;;;;;5095850;28;20050;-69
2022/08/08 07:55:25;;;;;;;3.28;1.40;;;25.70;91.70;;;;;;5095914;28;20446;-67
2022/08/08 07:58:09;;;;;;;3.55;1.65;;;25.70;92.00;;;;;;5096997;28;20525;-68
2022/08/08 08:00:42;;;;;;;5.10;1.40;;;25.70;91.80;;;;;;5096985;28;20028;-68
2022/08/08 08:03:14;;;;;;;4.53;1.45;;;25.80;91.80;;;;;;5097675;28;20025;-69
2022/08/08 08:05:42;;;;;;;4.15;1.30;;;26.10;91.30;;;;;;5097459;28;20020;-68
2022/08/08 08:08:48;;;;;;;5.57;1.88;;;26.30;91.30;;;;;;5097118;28;20171;-69
2022/08/08 08:11:15;;;;;;;3.55;1.42;;;26.50;91.20;;;;;;5090509;28;20044;-66
2022/08/08 08:13:50;;;;;;;5.63;1.48;;;26.80;90.30;;;;;;5096669;28;20034;-67
2022/08/08 08:16:27;;;;;;;4.68;1.15;;;27.40;90.00;;;;;;5096762;28;20020;-66
2022/08/08 08:18:57;;;;;;;4.45;1.52;;;27.90;86.80;;;;;;5096987;28;20380;-68
2022/08/08 08:21:40;;;;;;;2.67;1.30;;;28.40;86.10;;;;;;5095401;28;20024;-69
2022/08/08 08:24:06;;;;;;;2.47;0.98;;;29.20;83.90;;;;;;5096770;28;20114;-67
2022/08/08 08:26:32;;;;;;;2.40;1.00;;;30.00;82.20;;;;;;5096825;28;20528;-67
2022/08/08 08:28:58;;;;;;;1.90;1.20;;;31.00;80.50;;;;;;5096640;28;20027;-71
2022/08/08 08:31:24;;;;;;;3.35;1.30;;;31.90;78.50;;;;;;5096453;28;20031;-67
2022/08/08 08:33:49;;;;;;;3.90;1.10;;;32.90;75.20;;;;;;5096635;28;20020;-67
2022/08/08 08:36:17;;;;;;;3.90;1.20;;;33.60;73.00;;;;;;5096033;28;20016;-68
2022/08/08 08:38:43;;;;;;;2.38;1.25;;;34.20;72.50;;;;;;5096562;28;20357;-68
2022/08/08 08:41:13;;;;;;;3.65;1.33;;;34.00;71.60;;;;;;5096448;28;20034;-70
2022/08/08 08:43:40;;;;;;;4.45;1.13;;;33.10;71.90;;;;;;5096411;28;20028;-68
2022/08/08 08:46:10;;;;;;;6.15;1.80;;;32.30;73.30;;;;;;5095979;28;20377;-70
2022/08/08 08:48:37;;;;;;;6.57;1.53;;;31.30;75.60;;;;;;5096369;28;20361;-70
2022/08/08 08:51:06;;;;;;;4.80;1.70;;;30.60;77.40;;;;;;5096194;28;20028;-68
2022/08/08 08:53:36;;;;;;;5.15;1.67;;;29.80;78.70;;;;;;5095550;28;20403;-67
2022/08/08 08:56:03;;;;;;;6.97;2.40;;;29.00;80.10;;;;;;5095930;28;20016;-67
2022/08/08 08:58:31;;;;;;;3.58;1.92;;;28.50;81.40;;;;;;5095474;28;20043;-67
2022/08/08 09:00:59;;;;;;;6.70;1.90;;;28.20;82.10;;;;;;5095787;28;20031;-67
2022/08/08 09:03:28;;;;;;;7.40;2.15;;;27.90;82.60;;;;;;5095781;28;20031;-67
2022/08/08 09:05:54;;;;;;;4.30;1.88;;;27.60;83.40;;;;;;5095720;28;20016;-68
2022/08/08 09:08:23;;;;;;;8.30;2.00;;;27.60;83.60;;;;;;5095595;28;20103;-66
2022/08/08 09:10:49;;;;;;;7.53;1.75;;;27.60;83.50;;;;;;5095813;28;20024;-66
2022/08/08 09:13:16;;;;;;;6.30;1.50;;;27.60;83.70;;;;;;5095827;28;20024;-66
2022/08/08 09:15:43;;;;;;;2.72;1.40;;;27.80;83.30;;;;;;5095517;28;20045;-67
2022/08/08 09:18:08;;;;;;;3.05;1.98;;;27.90;82.90;;;;;;5094732;28;20038;-66
2022/08/08 09:20:36;;;;;;;7.13;1.75;;;28.10;81.50;;;;;;5085785;28;20068;-67
2022/08/08 09:23:03;;;;;;;5.75;1.80;;;28.30;82.60;;;;;;5083098;28;20074;-70
2022/08/08 09:25:29;;;;;;;3.92;1.35;;;29.50;80.60;;;;;;5096772;28;20076;-69
2022/08/08 09:27:56;;;;;;;5.70;1.50;;;30.80;77.50;;;;;;5095263;28;20032;-71
2022/08/08 09:30:24;;;;;;;3.20;1.20;;;31.50;75.40;;;;;;5095101;28;20047;-68
2022/08/08 09:32:54;;;;;;;6.13;1.50;;;31.60;74.00;;;;;;5094982;28;20020;-68
2022/08/08 09:35:27;;;;;;;4.60;1.27;;;32.00;73.40;;;;;;5092478;28;20122;-68
2022/08/08 09:37:55;;;;;;;3.90;1.40;;;32.00;73.20;;;;;;5075348;28;20017;-68
2022/08/08 09:40:26;;;;;;;5.10;1.55;;;32.50;72.00;;;;;;5074532;28;20024;-68
2022/08/08 09:43:08;;;;;;;4.40;1.60;;;33.20;70.70;;;;;;5070525;28;20438;-66
2022/08/08 09:46:07;;;;;;;5.00;1.38;;;34.10;69.60;;;;;;5094125;28;20252;-67
2022/08/08 09:48:37;;;;;;;5.05;1.38;;;35.30;67.40;;;;;;5094982;28;20028;-67
2022/08/08 09:51:03;;;;;;;6.53;2.10;;;35.30;67.10;;;;;;5094831;28;20357;-67
2022/08/08 09:54:00;;;;;;;5.88;1.92;;;34.60;67.40;;;;;;5094438;28;20031;-67
2022/08/08 09:56:32;;;;;;;8.65;1.55;;;33.40;68.30;;;;;;5090216;28;20031;-67
2022/08/08 09:59:03;;;;;;;7.32;2.25;;;32.30;69.80;;;;;;5094382;28;20058;-66
2022/08/08 10:01:31;;;;;;;6.13;1.92;;;31.40;71.10;;;;;;5094189;28;20484;-67
2022/08/08 10:03:58;;;;;;;6.07;2.25;;;30.60;72.30;;;;;;5094654;28;20020;-67
2022/08/08 10:06:24;;;;;;;5.85;2.17;;;30.20;73.30;;;;;;5093758;28;20053;-67
2022/08/08 10:08:51;;;;;;;6.97;2.03;;;30.20;74.00;;;;;;5094702;28;20346;-67
2022/08/08 10:11:17;;;;;;;7.45;2.10;;;31.20;72.50;;;;;;5094534;28;20425;-67
2022/08/08 10:13:52;;;;;;;6.90;2.03;;;32.10;70.50;;;;;;5090108;28;20024;-68
2022/08/08 10:16:17;;;;;;;9.38;2.30;;;32.30;70.70;;;;;;5079892;28;20023;-66
2022/08/08 10:18:43;;;;;;;8.68;2.08;;;32.20;70.20;;;;;;5094425;28;20024;-70
2022/08/08 10:21:10;;;;;;;5.63;1.80;;;31.60;70.80;;;;;;5094408;28;20024;-69
2022/08/08 10:23:42;;;;;;;6.03;1.88;;;31.00;71.60;;;;;;5094553;28;20024;-67
2022/08/08 10:26:21;;;;;;;4.38;1.73;;;30.60;72.30;;;;;;5094482;28;20094;-67
2022/08/08 10:28:55;;;;;;;4.90;1.30;;;30.90;71.70;;;;;;5094400;28;20052;-67
2022/08/08 10:34:15;;;;;;;2.97;1.20;;;31.50;70.90;;;;;;5094416;28;20042;-68
2022/08/08 10:36:41;;;;;;;4.80;1.60;;;32.60;69.80;;;;;;5092909;28;20442;-68
2022/08/08 10:39:10;;;;;;;6.28;1.77;;;33.60;67.40;;;;;;5093146;28;20028;-68
2022/08/08 10:41:37;;;;;;;5.00;1.60;;;33.80;66.40;;;;;;5093702;28;20044;-67
2022/08/08 10:44:04;;;;;;;6.22;1.92;;;33.80;66.50;;;;;;5094143;28;20054;-67
2022/08/08 10:46:30;;;;;;;8.27;1.98;;;33.70;66.50;;;;;;5094405;28;20036;-70
2022/08/08 10:48:57;;;;;;;5.68;1.75;;;33.60;66.70;;;;;;5094081;28;20457;-69
2022/08/08 10:51:27;;;;;;;3.28;1.38;;;33.60;66.70;;;;;;5093765;28;20027;-68
2022/08/08 10:53:56;;;;;;;4.53;1.63;;;33.40;66.00;;;;;;5093487;28;20111;-67
2022/08/08 10:56:22;;;;;;;2.50;1.30;;;33.10;66.40;;;;;;5093615;28;20055;-67
2022/08/08 10:58:59;;;;;;;8.00;1.63;;;32.60;66.10;;;;;;5093398;28;20036;-69
2022/08/08 11:01:31;;;;;;;6.10;1.33;;;32.10;66.90;;;;;;5093569;28;20032;-71
2022/08/08 11:03:59;;;;;;;6.00;1.50;;;31.50;66.50;;;;;;5093493;28;20040;-68
2022/08/08 11:06:33;;;;;;;4.70;1.42;;;31.10;68.60;;;;;;5092546;28;20036;-67
2022/08/08 11:09:09;;;;;;;6.60;1.45;;;31.50;68.80;;;;;;5093844;28;20016;-70
2022/08/08 11:11:43;;;;;;;5.90;1.08;;;32.70;68.20;;;;;;5093479;28;20407;-67
2022/08/08 11:14:11;;;;;;;2.53;0.80;;;34.40;65.80;;;;;;5093574;28;20077;-68
2022/08/08 11:16:41;;;;;;;5.63;1.27;;;35.30;64.50;;;;;;5091956;28;20501;-67
2022/08/08 11:19:07;;;;;;;2.40;1.13;;;35.30;63.00;;;;;;5093131;28;20541;-68
2022/08/08 11:21:35;;;;;;;3.92;1.20;;;35.00;63.60;;;;;;5093363;28;20035;-67
2022/08/08 11:24:04;;;;;;;3.90;1.30;;;34.60;63.80;;;;;;5093452;28;20012;-67
2022/08/08 11:26:32;;;;;;;5.82;1.58;;;33.70;64.80;;;;;;5093326;28;20024;-69
2022/08/08 11:29:06;;;;;;;4.07;1.25;;;32.80;66.10;;;;;;5091803;28;20421;-70
2022/08/08 11:31:38;;;;;;;2.10;1.00;;;31.90;67.60;;;;;;5093340;28;20024;-66
2022/08/08 11:34:04;;;;;;;6.47;1.75;;;30.90;69.10;;;;;;5092914;28;20020;-68
2022/08/08 11:36:32;;;;;;;3.05;1.40;;;30.10;70.50;;;;;;5093345;28;20361;-66
2022/08/08 11:38:58;;;;;;;5.05;2.00;;;29.40;71.30;;;;;;5093403;28;20044;-67
2022/08/08 11:41:25;;;;;;;6.30;1.90;;;28.70;73.00;;;;;;5093204;28;20028;-67
2022/08/08 11:43:53;;;;;;;6.70;2.10;;;28.00;74.70;;;;;;5093300;28;20386;-69
2022/08/08 11:46:20;;;;;;;5.93;2.08;;;27.30;76.30;;;;;;5093255;28;20476;-70
2022/08/08 11:48:47;;;;;;;7.30;1.70;;;26.90;77.70;;;;;;5093146;28;20016;-67
2022/08/08 11:51:15;;;;;;;6.70;2.17;;;26.60;78.90;;;;;;5093356;28;20027;-67
2022/08/08 11:53:41;;;;;;;4.32;1.95;;;26.30;79.90;;;;;;5093143;28;20113;-67
2022/08/08 11:56:18;;;;;;;5.78;1.85;;;26.10;81.10;;;;;;5092783;28;20444;-67
2022/08/08 11:58:43;;;;;;;5.05;1.70;;;26.00;82.10;;;;;;5093190;28;20040;-67
2022/08/08 12:01:09;;;;;;;6.40;1.90;;;25.90;82.30;;;;;;5087996;28;20476;-68
2022/08/08 12:03:35;;;;;;;7.75;1.90;;;26.00;82.60;;;;;;5078996;28;20032;-70
2022/08/08 12:06:11;;;;;;;5.07;1.90;;;26.10;82.70;;;;;;5091389;28;20483;-70
2022/08/08 12:08:37;;;;;;;9.05;1.88;;;26.30;83.00;;;;;;5093009;28;20016;-69
2022/08/08 12:11:10;;;;;;;7.00;2.10;;;26.40;82.80;;;;;;5092952;28;20020;-68
2022/08/08 12:13:36;;;;;;;6.97;2.00;;;26.70;82.90;;;;;;5093172;28;20024;-68
2022/08/08 12:16:18;;;;;;;7.80;2.00;;;27.10;82.60;;;;;;5092912;28;20456;-71
2022/08/08 12:18:54;;;;;;;5.88;1.77;;;27.60;81.70;;;;;;5092609;28;20031;-67
2022/08/08 12:21:25;;;;;;;7.40;1.83;;;28.10;80.30;;;;;;5092608;28;20042;-69
2022/08/08 12:24:11;;;;;;;7.93;2.05;;;27.90;80.40;;;;;;5092728;28;20362;-67
2022/08/08 12:26:39;;;;;;;7.10;2.33;;;27.80;80.80;;;;;;5093049;28;20020;-68
2022/08/08 12:29:25;;;;;;;4.05;2.00;;;28.00;81.10;;;;;;5094811;28;20015;-67
2022/08/08 12:32:08;;;;;;;6.78;2.05;;;28.20;80.60;;;;;;5096639;28;20019;-67
2022/08/08 12:34:40;;;;;;;6.50;1.95;;;28.40;80.50;;;;;;5095359;28;20450;-70
2022/08/08 12:37:09;;;;;;;5.43;1.60;;;28.60;79.50;;;;;;5096436;28;20476;-67
2022/08/08 12:39:35;;;;;;;5.35;1.50;;;28.80;78.70;;;;;;5097080;28;20094;-68
2022/08/08 12:42:01;;;;;;;3.75;2.03;;;29.60;76.30;;;;;;5099605;28;20481;-67
2022/08/08 12:44:28;;;;;;;4.28;1.50;;;30.50;76.00;;;;;;5098659;28;20036;-66
2022/08/08 12:46:57;;;;;;;3.75;1.30;;;31.00;74.20;;;;;;5096424;28;20040;-66
2022/08/08 12:49:29;;;;;;;5.47;1.70;;;31.10;74.60;;;;;;5094891;28;20035;-69
2022/08/08 12:51:54;;;;;;;7.57;2.00;;;31.30;73.30;;;;;;5096492;28;20020;-68
2022/08/08 12:54:22;;;;;;;4.88;1.63;;;31.20;73.20;;;;;;5095550;28;20085;-67
2022/08/08 12:56:48;;;;;;;5.32;1.70;;;30.90;72.60;;;;;;5095818;28;20024;-66
2022/08/08 12:59:23;;;;;;;5.68;1.90;;;30.50;72.80;;;;;;5095985;28;20034;-69
2022/08/08 13:02:00;;;;;;;3.58;1.33;;;29.90;73.40;;;;;;5093664;28;20133;-70
2022/08/08 13:04:33;;;;;;;2.45;1.52;;;29.50;73.90;;;;;;5085546;28;20020;-68
2022/08/08 13:07:00;;;;;;;7.10;2.25;;;29.10;73.30;;;;;;5095746;28;20024;-68
2022/08/08 13:09:49;;;;;;;2.30;1.20;;;28.80;73.10;;;;;;5095935;28;20095;-69
2022/08/08 13:12:18;;;;;;;5.13;1.50;;;28.80;74.20;;;;;;5077195;28;20103;-68
2022/08/08 13:14:50;;;;;;;3.15;1.40;;;28.60;74.80;;;;;;5075545;28;20012;-67
2022/08/08 13:17:21;;;;;;;2.75;1.52;;;28.70;75.00;;;;;;5088758;28;20073;-69
2022/08/08 13:19:47;;;;;;;4.13;1.40;;;28.90;75.10;;;;;;5095331;28;20059;-66
2022/08/08 13:22:16;;;;;;;3.65;1.50;;;29.10;76.10;;;;;;5095660;28;20035;-66
2022/08/08 13:24:43;;;;;;;5.55;2.00;;;29.00;76.00;;;;;;5095849;28;20103;-66
2022/08/08 13:27:10;;;;;;;6.72;1.90;;;28.80;76.60;;;;;;5095798;28;20024;-69